Time;durP1;ratioP1;P1;durP2;ratioP2;P2;SDS_P1;SDS_P2;PMS_P1;PMS_P2;Temp;Humidity;BMP_temperature;BMP_pressure;BME280_temperature;BME280_humidity;BME280_pressure;Samples;Min_cycle;Max_cycle;Signal;HPM_P1;HPM_P2
2022/10/03 00:00:08;;;;;;;;;;;;;;;-144.99;100.00;52427.72;5070178;28;19929;-77
2022/10/03 00:02:49;;;;;;;;;;;;;;;-144.99;100.00;52448.09;5069687;28;20037;-76
2022/10/03 00:05:23;;;;;;;;;;;;;;;-144.99;100.00;52444.03;5068914;28;19924;-76
2022/10/03 00:07:55;;;;;;;;;;;;;;;-144.99;100.00;52466.44;5067120;28;20300;-76
2022/10/03 00:10:28;;;;;;;;;;;;;;;-144.99;100.00;52435.88;5056569;28;20021;-76
2022/10/03 00:13:09;;;;;;;;;;;;;;;-144.99;100.00;52435.88;5068869;28;19974;-77
2022/10/03 00:15:41;;;;;;;;;;;;;;;-144.99;100.00;52444.03;5065835;28;19932;-76
2022/10/03 00:18:13;;;;;;;;;;;;;;;-144.99;100.00;52415.47;5069139;28;19944;-77
2022/10/03 00:20:51;;;;;;;;;;;;;;;-144.99;100.00;52399.19;5069483;28;20315;-77
2022/10/03 00:23:23;;;;;;;;;;;;;;;-144.99;100.00;52450.13;5057686;28;20198;-78
2022/10/03 00:25:55;;;;;;;;;;;;;;;-144.99;100.00;52407.31;5068243;28;19935;-77
2022/10/03 00:28:27;;;;;;;;;;;;;;;-144.99;100.00;52452.16;5069868;28;19929;-76
2022/10/03 00:31:04;;;;;;;;;;;;;;;-144.99;100.00;52423.63;5069190;28;20366;-77
2022/10/03 00:33:35;;;;;;;;;;;;;;;-144.99;100.00;52439.94;5069253;28;19935;-77
2022/10/03 00:36:06;;;;;;;;;;;;;;;-144.99;100.00;52419.56;5059238;28;20386;-77
2022/10/03 00:39:02;;;;;;;;;;;;;;;-144.99;100.00;52431.78;5069189;28;19929;-77
2022/10/03 00:41:46;;;;;;;;;;;;;;;-144.99;100.00;52399.19;5069190;28;20087;-76
2022/10/03 00:44:30;;;;;;;;;;;;;;;-144.99;100.00;52417.53;5069119;28;19928;-77
2022/10/03 00:47:02;;;;;;;;;;;;;;;-144.99;100.00;52415.47;5068034;28;20132;-77
2022/10/03 00:49:52;;;;;;;;;;;;;;;-144.99;100.00;52411.41;5056462;28;19947;-76
2022/10/03 00:52:29;;;;;;;;;;;;;;;-144.99;100.00;52429.75;5056195;28;19932;-76
2022/10/03 00:55:04;;;;;;;;;;;;;;;-144.99;100.00;52435.88;5068709;28;20414;-76
2022/10/03 00:57:41;;;;;;;;;;;;;;;-144.99;100.00;52427.72;5056053;28;19929;-77
2022/10/03 01:00:16;;;;;;;;;;;;;;;-144.99;100.00;52386.94;5069061;28;20315;-78
2022/10/03 01:03:00;;;;;;;;;;;;;;;-144.99;100.00;52391.03;5066853;28;19932;-77
2022/10/03 01:05:32;;;;;;;;;;;;;;;-144.99;100.00;52431.78;5066854;28;19924;-76
2022/10/03 01:08:06;;;;;;;;;;;;;;;-144.99;100.00;52431.78;5067875;28;19931;-77
2022/10/03 01:10:36;;;;;;;;;;;;;;;-144.99;100.00;52427.72;5068565;28;19955;-77
2022/10/03 01:13:12;;;;;;;;;;;;;;;-144.99;100.00;52439.94;5067473;28;19936;-76
2022/10/03 01:15:45;;;;;;;;;;;;;;;-144.99;100.00;52431.78;5068417;28;19931;-77
2022/10/03 01:18:18;;;;;;;;;;;;;;;-144.99;100.00;52431.78;5086760;28;19930;-76
2022/10/03 01:20:50;;;;;;;;;;;;;;;-144.99;100.00;52393.06;5089007;28;19934;-77
2022/10/03 01:23:33;;;;;;;;;;;;;;;-144.99;100.00;52399.19;5057926;28;19928;-77
2022/10/03 01:26:07;;;;;;;;;;;;;;;-144.99;100.00;52423.63;5064232;28;19932;-77
2022/10/03 01:31:28;;;;;;;;;;;;;;;-144.99;100.00;52384.91;5069111;28;20025;-77
2022/10/03 01:33:58;;;;;;;;;;;;;;;-144.99;100.00;52419.56;5067145;28;19928;-78
2022/10/03 01:36:29;;;;;;;;;;;;;;;-144.99;100.00;52415.47;5073589;28;19933;-78
2022/10/03 01:38:57;;;;;;;;;;;;;;;-144.99;100.00;52403.25;5071447;28;19941;-78
2022/10/03 01:41:28;;;;;;;;;;;;;;;-144.99;100.00;52456.25;5071913;28;20414;-78
2022/10/03 01:44:00;;;;;;;;;;;;;;;-144.99;100.00;52386.94;5072475;28;19935;-78
2022/10/03 01:46:35;;;;;;;;;;;;;;;-144.99;100.00;52439.94;5073346;28;19925;-78
2022/10/03 01:49:07;;;;;;;;;;;;;;;-144.99;100.00;52431.78;5076581;28;19928;-79
2022/10/03 01:51:42;;;;;;;;;;;;;;;-144.99;100.00;52391.03;5094398;28;19972;-79
2022/10/03 01:54:15;;;;;;;;;;;;;;;-144.99;100.00;52452.16;5092076;28;19924;-79
2022/10/03 01:56:46;;;;;;;;;;;;;;;-144.99;100.00;52456.25;5091860;28;19929;-80
2022/10/03 01:59:18;;;;;;;;;;;;;;;-144.99;100.00;52399.19;5091100;28;19934;-78
2022/10/03 02:01:48;;;;;;;;;;;;;;;-144.99;100.00;52415.47;5090501;28;19950;-79
2022/10/03 02:04:18;;;;;;;;;;;;;;;-144.99;100.00;52397.13;5089205;28;20327;-79
2022/10/03 02:06:51;;;;;;;;;;;;;;;-144.99;100.00;52397.13;5087720;28;20446;-80
2022/10/03 02:09:24;;;;;;;;;;;;;;;-144.99;100.00;52460.31;5087601;28;19935;-78
2022/10/03 02:12:00;;;;;;;;;;;;;;;-144.99;100.00;52439.94;5079635;28;19929;-78
2022/10/03 02:14:32;;;;;;;;;;;;;;;-144.99;100.00;52435.88;5071808;28;19924;-78
2022/10/03 02:17:01;;;;;;;;;;;;;;;-144.99;100.00;52427.72;5069574;28;19925;-77
2022/10/03 02:19:30;;;;;;;;;;;;;;;-144.99;100.00;52423.63;5082683;28;19924;-77
2022/10/03 02:21:57;;;;;;;;;;;;;;;-144.99;100.00;52452.16;5081326;28;19943;-78
2022/10/03 02:24:34;;;;;;;;;;;;;;;-144.99;100.00;52444.03;5098905;28;19934;-78
2022/10/03 02:27:11;;;;;;;;;;;;;;;-144.99;100.00;52433.81;5090889;28;19925;-77
2022/10/03 02:29:51;;;;;;;;;;;;;;;-144.99;100.00;52431.78;5083047;28;19928;-77
2022/10/03 02:32:35;;;;;;;;;;;;;;;-144.99;100.00;52462.34;5083528;28;19924;-77
2022/10/03 02:35:28;;;;;;;;;;;;;;;-144.99;100.00;52456.25;5078290;28;19928;-77
2022/10/03 02:38:05;;;;;;;;;;;;;;;-144.99;100.00;52460.31;5050852;28;19929;-77
2022/10/03 02:40:47;;;;;;;;;;;;;;;-144.99;100.00;52431.78;5068621;28;19929;-77
2022/10/03 02:43:31;;;;;;;;;;;;;;;-144.99;100.00;52435.88;5070614;28;20225;-77
2022/10/03 02:46:21;;;;;;;;;;;;;;;-144.99;100.00;52470.50;5087701;28;20432;-76
2022/10/03 02:48:59;;;;;;;;;;;;;;;-144.99;100.00;52476.63;4721101;28;9999718;-77
2022/10/03 02:51:44;;;;;;;;;;;;;;;-144.99;100.00;52409.38;5070746;28;19938;-77
2022/10/03 02:54:31;;;;;;;;;;;;;;;-144.99;100.00;52452.16;5071058;28;19932;-76
2022/10/03 02:57:15;;;;;;;;;;;;;;;-144.99;100.00;52478.66;5072066;28;19928;-76
2022/10/03 02:59:55;;;;;;;;;;;;;;;-144.99;100.00;52399.19;5080711;22;20356;-78
2022/10/03 03:02:46;;;;;;;;;;;;;;;-144.99;100.00;52456.25;5055896;28;20302;-77
2022/10/03 03:05:24;;;;;;;;;;;;;;;-144.99;100.00;52431.78;5072779;28;19931;-78
2022/10/03 03:08:03;;;;;;;;;;;;;;;-144.99;100.00;52423.63;5067274;28;20359;-75
2022/10/03 03:10:34;;;;;;;;;;;;;;;-144.99;100.00;52476.63;5060977;28;19925;-79
2022/10/03 03:13:11;;;;;;;;;;;;;;;-144.99;100.00;52423.63;5072196;28;19929;-79
2022/10/03 03:15:56;;;;;;;;;;;;;;;-144.99;100.00;52444.03;5072180;28;19924;-80
2022/10/03 03:18:31;;;;;;;;;;;;;;;-144.99;100.00;52427.72;5069710;28;19932;-79
2022/10/03 03:21:05;;;;;;;;;;;;;;;-144.99;100.00;52419.56;5068205;28;19932;-78
2022/10/03 03:23:49;;;;;;;;;;;;;;;-144.99;100.00;52435.88;5061612;28;19950;-77
2022/10/03 03:26:35;;;;;;;;;;;;;;;-144.99;100.00;52439.94;5069228;28;19924;-77
2022/10/03 03:29:05;;;;;;;;;;;;;;;-144.99;100.00;52472.56;5062997;28;19994;-80
2022/10/03 03:31:36;;;;;;;;;;;;;;;-144.99;100.00;52439.94;5069724;28;19935;-78
2022/10/03 03:34:07;;;;;;;;;;;;;;;-144.99;100.00;52492.94;5072031;28;19924;-77
2022/10/03 03:36:37;;;;;;;;;;;;;;;-144.99;100.00;52444.03;5071300;28;19951;-78
2022/10/03 03:39:12;;;;;;;;;;;;;;;-144.99;100.00;52454.22;5068191;28;19925;-78
2022/10/03 03:41:56;;;;;;;;;;;;;;;-144.99;100.00;52450.13;5061311;28;19947;-77
2022/10/03 03:44:44;;;;;;;;;;;;;;;-144.99;100.00;52452.16;5071408;28;19925;-78
2022/10/03 03:47:28;;;;;;;;;;;;;;;-144.99;100.00;52407.31;5067863;28;19932;-77
2022/10/03 03:50:13;;;;;;;;;;;;;;;-144.99;100.00;52417.53;5070192;28;19928;-78
2022/10/03 03:52:46;;;;;;;;;;;;;;;-144.99;100.00;52444.03;5067513;28;20226;-77
2022/10/03 03:55:21;;;;;;;;;;;;;;;-144.99;100.00;52439.94;5071329;28;20375;-78
2022/10/03 03:58:07;;;;;;;;;;;;;;;-144.99;100.00;52450.13;5071288;28;19978;-78
2022/10/03 04:00:42;;;;;;;;;;;;;;;-144.99;100.00;52403.25;5066759;28;20404;-77
2022/10/03 04:03:18;;;;;;;;;;;;;;;-144.99;100.00;52439.94;5070816;28;19990;-78
2022/10/03 04:06:02;;;;;;;;;;;;;;;-144.99;100.00;52462.34;5071472;28;19931;-80
2022/10/03 04:08:44;;;;;;;;;;;;;;;-144.99;100.00;52435.88;5071314;28;19930;-77
2022/10/03 04:11:21;;;;;;;;;;;;;;;-144.99;100.00;52415.47;5069306;28;20070;-78
2022/10/03 04:14:00;;;;;;;;;;;;;;;-144.99;100.00;52435.88;5070995;28;20226;-78
2022/10/03 04:19:25;;;;;;;;;;;;;;;-144.99;100.00;52419.56;5062783;28;20030;-79
2022/10/03 04:21:58;;;;;;;;;;;;;;;-144.99;100.00;52452.16;5069881;28;20294;-76
2022/10/03 04:24:46;;;;;;;;;;;;;;;-144.99;100.00;52460.31;5070599;28;19924;-74
2022/10/03 04:27:20;;;;;;;;;;;;;;;-144.99;100.00;52468.47;5053435;28;19924;-74
2022/10/03 04:29:52;;;;;;;;;;;;;;;-144.99;100.00;52439.94;5068835;28;20243;-74
2022/10/03 04:32:34;;;;;;;;;;;;;;;-144.99;100.00;52476.63;5069450;28;19931;-75
2022/10/03 04:35:14;;;;;;;;;;;;;;;-144.99;100.00;52441.97;5069754;28;19940;-77
2022/10/03 04:37:44;;;;;;;;;;;;;;;-144.99;100.00;52448.09;5070323;28;19924;-76
2022/10/03 04:40:20;;;;;;;;;;;;;;;-144.99;100.00;52456.25;5069560;28;20555;-79
2022/10/03 04:42:52;;;;;;;;;;;;;;;-144.99;100.00;52427.72;5062197;28;19924;-76
2022/10/03 04:45:27;;;;;;;;;;;;;;;-144.99;100.00;52435.88;5070340;28;19925;-76
2022/10/03 04:47:59;;;;;;;;;;;;;;;-144.99;100.00;52456.25;5087252;28;19928;-79
2022/10/03 04:50:31;;;;;;;;;;;;;;;-144.99;100.00;52403.25;5085269;28;19959;-77
2022/10/03 04:53:08;;;;;;;;;;;;;;;-144.99;100.00;52472.56;5066452;28;20006;-78
2022/10/03 04:55:40;;;;;;;;;;;;;;;-144.99;100.00;52431.78;5069317;28;19932;-76
2022/10/03 04:58:15;;;;;;;;;;;;;;;-144.99;100.00;52423.63;5070563;28;19925;-75
2022/10/03 05:00:48;;;;;;;;;;;;;;;-144.99;100.00;52407.31;5057820;28;19924;-76
2022/10/03 05:03:19;;;;;;;;;;;;;;;-144.99;100.00;52480.72;5065427;28;19934;-78
2022/10/03 05:05:51;;;;;;;;;;;;;;;-144.99;100.00;52468.47;5070622;28;19924;-76
2022/10/03 05:08:24;;;;;;;;;;;;;;;-144.99;100.00;52441.97;5067277;28;19924;-77
2022/10/03 05:11:06;;;;;;;;;;;;;;;-144.99;100.00;52456.25;5069975;28;20343;-75
2022/10/03 05:13:41;;;;;;;;;;;;;;;-144.99;100.00;52472.56;5066079;28;20206;-76
2022/10/03 05:16:16;;;;;;;;;;;;;;;-144.99;100.00;52403.25;5056985;28;19947;-77
2022/10/03 05:18:46;;;;;;;;;;;;;;;-144.99;100.00;52429.75;5070106;28;19935;-76
2022/10/03 05:21:14;;;;;;;;;;;;;;;-144.99;100.00;52415.47;5070844;28;19928;-76
2022/10/03 05:23:47;;;;;;;;;;;;;;;-144.99;100.00;52488.84;5068391;28;20219;-76
2022/10/03 05:26:18;;;;;;;;;;;;;;;-144.99;100.00;52403.25;5067591;28;19931;-76
2022/10/03 05:28:50;;;;;;;;;;;;;;;-144.99;100.00;52448.09;5059979;28;20272;-75
2022/10/03 05:31:25;;;;;;;;;;;;;;;-144.99;100.00;52452.16;5069482;28;19993;-75
2022/10/03 05:33:54;;;;;;;;;;;;;;;-144.99;100.00;52421.59;5067806;28;20108;-77
2022/10/03 05:36:28;;;;;;;;;;;;;;;-144.99;100.00;52429.75;5069397;28;19932;-76
2022/10/03 05:39:15;;;;;;;;;;;;;;;-144.99;100.00;52468.47;5069911;28;19924;-76
2022/10/03 05:41:49;;;;;;;;;;;;;;;-144.99;100.00;52478.66;5060206;28;20396;-75
2022/10/03 05:44:19;;;;;;;;;;;;;;;-144.99;100.00;52439.94;5061976;28;20305;-78
2022/10/03 05:46:55;;;;;;;;;;;;;;;-144.99;100.00;52421.59;5063800;28;19931;-73
2022/10/03 05:49:29;;;;;;;;;;;;;;;-144.99;100.00;52452.16;5069112;28;19928;-76
2022/10/03 05:52:14;;;;;;;;;;;;;;;-144.99;100.00;52423.63;5069744;28;19931;-75
2022/10/03 05:55:04;;;;;;;;;;;;;;;-144.99;100.00;52407.31;5067938;28;19933;-78
2022/10/03 05:57:42;;;;;;;;;;;;;;;-144.99;100.00;52452.16;5070172;28;19924;-78
2022/10/03 06:00:15;;;;;;;;;;;;;;;-144.99;100.00;52448.09;5069991;28;20394;-81
2022/10/03 06:03:00;;;;;;;;;;;;;;;-144.99;100.00;52444.03;5069676;28;19925;-75
2022/10/03 06:05:30;;;;;;;;;;;;;;;-144.99;100.00;52370.63;5069957;28;20387;-76
2022/10/03 06:08:08;;;;;;;;;;;;;;;-144.99;100.00;52456.25;5070289;28;20031;-76
2022/10/03 06:10:46;;;;;;;;;;;;;;;-144.99;100.00;52458.28;5070798;28;19924;-76
2022/10/03 06:13:18;;;;;;;;;;;;;;;-144.99;100.00;52456.25;5071019;28;20019;-76
2022/10/03 06:15:54;;;;;;;;;;;;;;;-144.99;100.00;52431.78;5071824;28;19935;-74
2022/10/03 06:18:44;;;;;;;;;;;;;;;-144.99;100.00;52407.31;5066369;28;19936;-76
2022/10/03 06:21:31;;;;;;;;;;;;;;;-144.99;100.00;52427.72;5071321;28;20251;-76
2022/10/03 06:24:12;;;;;;;;;;;;;;;-144.99;100.00;52444.03;5069461;28;19939;-77
2022/10/03 06:26:53;;;;;;;;;;;;;;;-144.99;100.00;52460.31;5062504;28;19954;-76
2022/10/03 06:29:38;;;;;;;;;;;;;;;-144.99;100.00;52425.66;5074321;28;19925;-77
2022/10/03 06:32:24;;;;;;;;;;;;;;;-144.99;100.00;52421.59;5074582;28;19928;-76
2022/10/03 06:35:17;;;;;;;;;;;;;;;-144.99;100.00;52382.88;5060798;28;19939;-76
2022/10/03 06:38:00;;;;;;;;;;;;;;;-144.99;100.00;52444.03;5071526;28;19975;-77
2022/10/03 06:40:47;;;;;;;;;;;;;;;-144.99;100.00;52403.25;5075449;28;19935;-77
2022/10/03 06:43:34;;;;;;;;;;;;;;;-144.99;100.00;52391.03;5075853;28;19924;-77
2022/10/03 06:46:21;;;;;;;;;;;;;;;-144.99;100.00;52378.78;5056096;28;19935;-80
2022/10/03 06:49:06;;;;;;;;;;;;;;;-144.99;100.00;52395.09;5066652;28;19936;-76
2022/10/03 06:51:54;;;;;;;;;;;;;;;-144.99;100.00;52401.22;5072879;28;19947;-78
2022/10/03 06:54:39;;;;;;;;;;;;;;;-144.99;100.00;52415.47;5042986;28;20299;-74
2022/10/03 06:57:18;;;;;;;;;;;;;;;-144.99;100.00;52415.47;5071819;28;19925;-77
2022/10/03 06:59:51;;;;;;;;;;;;;;;-144.99;100.00;52382.88;5072810;28;19924;-77
2022/10/03 07:02:29;;;;;;;;;;;;;;;-144.99;100.00;52370.63;5072575;28;19924;-76
2022/10/03 07:05:10;;;;;;;;;;;;;;;-144.99;100.00;52391.03;5071818;28;19925;-76
2022/10/03 07:07:52;;;;;;;;;;;;;;;-144.99;100.00;52374.72;5066256;28;19929;-75
2022/10/03 07:10:27;;;;;;;;;;;;;;;-144.99;100.00;52388.97;5044846;28;20340;-77
2022/10/03 07:13:08;;;;;;;;;;;;;;;-144.99;100.00;52354.34;5066624;28;19924;-77
2022/10/03 07:15:48;;;;;;;;;;;;;;;-144.99;100.00;52374.72;5070700;28;19925;-80
2022/10/03 07:18:38;;;;;;;;;;;;;;;-144.99;100.00;52374.72;5070588;28;19924;-79
2022/10/03 07:21:21;;;;;;;;;;;;;;;-144.99;100.00;52427.72;5062463;28;20376;-78
2022/10/03 07:24:04;;;;;;;;;;;;;;;-144.99;100.00;52366.56;5072365;28;20000;-80
2022/10/03 07:26:46;;;;;;;;;;;;;;;-144.99;100.00;52370.63;5068217;28;19924;-81
2022/10/03 07:29:22;;;;;;;;;;;;;;;-144.99;100.00;52395.09;5076812;28;19929;-78
2022/10/03 07:31:56;;;;;;;;;;;;;;;-144.99;100.00;52350.25;5090127;28;19988;-78
2022/10/03 07:34:41;;;;;;;;;;;;;;;-144.99;100.00;52346.19;5071699;28;19967;-81
2022/10/03 07:40:16;;;;;;;;;;;;;;;-144.99;100.00;52399.19;5071682;28;19932;-77
2022/10/03 07:42:58;;;;;;;;;;;;;;;-144.99;100.00;52362.50;5072334;28;20010;-80
2022/10/03 07:45:38;;;;;;;;;;;;;;;-144.99;100.00;52366.56;5071777;28;19971;-76
2022/10/03 07:48:24;;;;;;;;;;;;;;;-144.99;100.00;52313.56;5070381;28;20068;-77
2022/10/03 07:51:13;;;;;;;;;;;;;;;-144.99;100.00;52331.91;5068031;28;20395;-78
2022/10/03 07:53:58;;;;;;;;;;;;;;;-144.99;99.03;52378.78;5057859;28;19924;-79
2022/10/03 07:56:45;;;;;;;;;;;;;;;-144.99;96.91;52329.88;5071036;28;20380;-78
2022/10/03 07:59:23;;;;;;;;;;;;;;;-144.99;97.27;52331.91;5058161;28;20400;-79
2022/10/03 08:01:59;;;;;;;;;;;;;;;-144.99;95.66;52325.81;5071352;28;19930;-78
2022/10/03 08:04:38;;;;;;;;;;;;;;;-144.99;94.11;52342.09;5071498;28;19924;-78
2022/10/03 08:07:12;;;;;;;;;;;;;;;-144.99;93.21;52329.88;5061752;28;19929;-79
2022/10/03 08:09:49;;;;;;;;;;;;;;;-144.99;92.49;52317.66;5065200;28;19925;-80
2022/10/03 08:12:27;;;;;;;;;;;;;;;-144.99;91.69;52333.94;5067440;28;20023;-78
2022/10/03 08:15:03;;;;;;;;;;;;;;;-144.99;90.89;52333.94;5064757;28;19932;-79
2022/10/03 08:17:42;;;;;;;;;;;;;;;-144.99;89.03;52342.09;5064382;28;19944;-81
2022/10/03 08:20:19;;;;;;;;;;;;;;;-144.99;87.74;52325.81;5060469;28;20429;-77
2022/10/03 08:22:55;;;;;;;;;;;;;;;-144.99;87.29;52378.78;5067874;28;19929;-77
2022/10/03 08:25:26;;;;;;;;;;;;;;;-144.99;87.70;52309.50;5069904;28;19932;-79
2022/10/03 08:28:23;;;;;;;;;;;;;;;-144.99;88.95;52338.03;5060467;28;20319;-76
2022/10/03 08:30:59;;;;;;;;;;;;;;;-144.99;89.90;52378.78;5025455;28;20001;-80
2022/10/03 08:33:41;;;;;;;;;;;;;;;-144.99;90.63;52366.56;5055668;28;19939;-77
2022/10/03 08:36:32;;;;;;;;;;;;;;;-144.99;90.85;52358.41;5066958;28;19925;-79
2022/10/03 08:39:08;;;;;;;;;;;;;;;-144.99;92.38;52358.41;5071906;28;20404;-81
2022/10/03 08:41:49;;;;;;;;;;;;;;;-144.99;93.32;52358.41;5063976;28;19924;-79
2022/10/03 08:44:33;;;;;;;;;;;;;;;-144.99;94.30;52386.94;5073135;28;19924;-81
2022/10/03 08:47:16;;;;;;;;;;;;;;;-144.99;95.23;52329.88;5077656;28;19963;-80
2022/10/03 08:50:06;;;;;;;;;;;;;;;-144.99;95.28;52350.25;5076458;28;20228;-80
2022/10/03 08:52:39;;;;;;;;;;;;;;;-144.99;90.12;52342.09;5068773;28;20396;-82
2022/10/03 08:55:14;;;;;;;;;;;;;;;-144.99;87.21;52338.03;5075251;28;20038;-81
2022/10/03 08:57:56;;;;;;;;;;;;;;;-144.99;85.80;52313.56;5075286;28;19966;-82
2022/10/03 09:00:23;;;;;;;;;;;;;;;-144.99;86.14;52362.50;5072156;28;19951;-82
2022/10/03 09:03:09;;;;;;;;;;;;;;;-144.99;86.14;52354.34;5071175;28;19932;-81
2022/10/03 09:06:07;;;;;;;;;;;;;;;-144.99;87.02;52321.72;4833828;28;10000092;-79
2022/10/03 09:08:48;;;;;;;;;;;;;;;-144.99;88.81;52350.25;5048925;28;20035;-80
2022/10/03 09:11:30;;;;;;;;;;;;;;;-144.99;89.50;52358.41;5069681;28;20150;-80
2022/10/03 09:14:15;;;;;;;;;;;;;;;-144.99;89.67;52346.19;5058026;28;19939;-82
2022/10/03 09:16:53;;;;;;;;;;;;;;;-144.99;89.90;52313.56;5073531;28;19929;-84
2022/10/03 09:19:35;;;;;;;;;;;;;;;-144.99;91.72;52323.75;5063096;28;19929;-78
2022/10/03 09:22:13;;;;;;;;;;;;;;;-144.99;90.16;52317.66;5068710;28;19928;-78
2022/10/03 09:25:06;;;;;;;;;;;;;;;-144.99;88.86;52348.22;5066963;28;19924;-80
2022/10/03 09:27:43;;;;;;;;;;;;;;;-144.99;87.82;52338.03;5036373;28;19924;-80
2022/10/03 09:30:30;;;;;;;;;;;;;;;-144.99;85.77;52366.56;5062716;28;20052;-79
2022/10/03 09:33:11;;;;;;;;;;;;;;;-144.99;83.89;52299.31;5072281;28;20398;-78
2022/10/03 09:35:45;;;;;;;;;;;;;;;-144.99;77.11;52297.25;5054505;28;19932;-81
2022/10/03 09:38:30;;;;;;;;;;;;;;;-144.99;75.15;52266.69;5064836;28;19925;-80
2022/10/03 09:41:11;;;;;;;;;;;;;;;-144.99;70.13;52215.75;5058378;28;19928;-79
2022/10/03 09:43:52;;;;;;;;;;;;;;;-144.99;61.16;52203.50;5058765;28;20111;-81
2022/10/03 09:46:40;;;;;;;;;;;;;;;-144.99;56.94;52227.97;5071280;28;20375;-80
2022/10/03 09:49:21;;;;;;;;;;;;;;;-144.99;55.60;52203.50;5070124;28;19931;-79
2022/10/03 09:51:56;;;;;;;;;;;;;;;-144.99;54.39;52244.28;5062569;28;19928;-78
2022/10/03 09:54:35;;;;;;;;;;;;;;;-144.99;55.14;52285.03;5062106;28;19972;-80
2022/10/03 09:57:17;;;;;;;;;;;;;;;-144.99;57.82;52305.41;5064890;28;20384;-78
2022/10/03 10:00:14;;;;;;;;;;;;;;;-144.99;59.73;52270.78;5063758;28;20020;-79
2022/10/03 10:03:07;;;;;;;;;;;;;;;-144.99;60.91;52266.69;5005421;28;19933;-78
2022/10/03 10:05:52;;;;;;;;;;;;;;;-144.99;58.22;52268.72;5063765;28;19935;-80
2022/10/03 10:08:32;;;;;;;;;;;;;;;-144.99;56.52;52252.44;5082600;28;20425;-82
2022/10/03 10:11:10;;;;;;;;;;;;;;;-144.99;54.56;52187.19;5080584;28;20427;-80
2022/10/03 10:13:56;;;;;;;;;;;;;;;-144.99;49.29;52162.75;5065207;28;19924;-78
2022/10/03 10:16:34;;;;;;;;;;;;;;;-144.99;46.97;52170.91;5066052;28;19936;-81
2022/10/03 10:19:15;;;;;;;;;;;;;;;-144.99;44.99;52126.06;5069142;28;19924;-81
2022/10/03 10:21:56;;;;;;;;;;;;;;;-144.99;44.01;52085.31;5069954;28;19931;-76
2022/10/03 10:24:35;;;;;;;;;;;;;;;-144.99;43.12;52069.00;5071695;28;19928;-79
2022/10/03 10:27:19;;;;;;;;;;;;;;;-144.99;41.59;52064.91;5069987;28;20084;-78
2022/10/03 10:30:02;;;;;;;;;;;;;;;-144.99;40.69;52073.06;5071842;28;19970;-79
2022/10/03 10:32:56;;;;;;;;;;;;;;;-144.99;40.80;52093.44;5062665;28;19938;-78
2022/10/03 10:35:40;;;;;;;;;;;;;;;-144.99;40.52;52158.66;4716105;28;10000495;-78
2022/10/03 10:38:30;;;;;;;;;;;;;;;-144.99;41.31;52201.47;5067503;28;19928;-80
2022/10/03 10:41:32;;;;;;;;;;;;;;;-144.99;43.29;52268.72;5058147;28;19939;-79
2022/10/03 10:44:17;;;;;;;;;;;;;;;-144.99;45.21;52289.13;5066294;28;19937;-78
2022/10/03 10:47:02;;;;;;;;;;;;;;;-144.99;47.20;52305.41;5070688;28;19924;-78
2022/10/03 10:49:46;;;;;;;;;;;;;;;-144.99;49.84;52338.03;5070217;28;19936;-76
2022/10/03 10:52:46;;;;;;;;;;;;;;;-144.99;51.54;52360.44;5057571;28;20355;-79
2022/10/03 10:55:31;;;;;;;;;;;;;;;-144.99;53.35;52362.50;5071002;28;20494;-81
2022/10/03 10:58:30;;;;;;;;;;;;;;;-144.99;54.75;52370.63;5063731;28;19928;-80
2022/10/03 11:01:14;;;;;;;;;;;;;;;-144.99;57.35;52384.91;5061192;28;20435;-74
2022/10/03 11:03:58;;;;;;;;;;;;;;;-144.99;59.73;52386.94;5036096;28;19928;-78
2022/10/03 11:06:52;;;;;;;;;;;;;;;-144.99;63.59;52374.72;5038366;28;19928;-79
2022/10/03 11:09:34;;;;;;;;;;;;;;;-144.99;65.93;52407.31;5058940;28;20027;-81
2022/10/03 11:12:24;;;;;;;;;;;;;;;-144.99;69.16;52407.31;5063127;28;19924;-76
2022/10/03 11:15:08;;;;;;;;;;;;;;;-144.99;73.09;52419.56;5068344;28;19932;-81
2022/10/03 11:17:46;;;;;;;;;;;;;;;-144.99;76.42;52419.56;5059696;28;19931;-78
2022/10/03 11:20:27;;;;;;;;;;;;;;;-144.99;80.29;52439.94;5069384;28;20422;-78
2022/10/03 11:23:09;;;;;;;;;;;;;;;-144.99;80.94;52380.84;5061533;28;19947;-80
2022/10/03 11:25:50;;;;;;;;;;;;;;;-144.99;82.39;52415.47;5066377;28;19928;-79
2022/10/03 11:28:49;;;;;;;;;;;;;;;-144.99;83.80;52403.25;5068117;28;20712;-78
2022/10/03 11:31:30;;;;;;;;;;;;;;;-144.99;85.16;52403.25;5061863;28;19947;-77
2022/10/03 11:34:11;;;;;;;;;;;;;;;-144.99;85.28;52417.53;5066666;28;20632;-78
2022/10/03 11:36:56;;;;;;;;;;;;;;;-144.99;86.01;52423.63;5060247;28;19937;-79
2022/10/03 11:39:28;;;;;;;;;;;;;;;-144.99;86.65;52427.72;5060905;28;19932;-81
2022/10/03 11:42:00;;;;;;;;;;;;;;;-144.99;87.81;52419.56;5066347;28;19932;-78
2022/10/03 11:44:29;;;;;;;;;;;;;;;-144.99;87.88;52395.09;5065888;28;19939;-81
2022/10/03 11:47:11;;;;;;;;;;;;;;;-144.99;87.76;52395.09;5064616;28;21550;-78
2022/10/03 11:49:56;;;;;;;;;;;;;;;-144.99;88.17;52439.94;5056098;28;20338;-78
2022/10/03 11:52:30;;;;;;;;;;;;;;;-144.99;88.44;52374.72;5061076;28;19928;-77
2022/10/03 11:55:05;;;;;;;;;;;;;;;-144.99;87.97;52427.72;5072291;28;20307;-81
2022/10/03 11:57:35;;;;;;;;;;;;;;;-144.99;87.56;52427.72;5063953;28;19924;-81
2022/10/03 12:00:04;;;;;;;;;;;;;;;-144.99;87.26;52415.47;5069449;28;20295;-79
2022/10/03 12:02:40;;;;;;;;;;;;;;;-144.99;89.33;52407.31;5061823;28;20059;-79
2022/10/03 12:05:12;;;;;;;;;;;;;;;-144.99;88.98;52382.88;5066763;28;20314;-80
2022/10/03 12:10:41;;;;;;;;;;;;;;;-144.99;85.75;52403.25;5009613;28;19933;-81
2022/10/03 12:13:13;;;;;;;;;;;;;;;-144.99;85.51;52423.63;5074085;28;20019;-81
2022/10/03 12:15:42;;;;;;;;;;;;;;;-144.99;85.16;52399.19;5067013;28;20035;-79
2022/10/03 12:18:13;;;;;;;;;;;;;;;-144.99;82.33;52358.41;5070422;28;19939;-79
2022/10/03 12:20:48;;;;;;;;;;;;;;;-144.99;82.08;52395.09;5060088;28;20399;-82
2022/10/03 12:23:22;;;;;;;;;;;;;;;-144.99;79.65;52395.09;5071671;28;19934;-81
2022/10/03 12:25:50;;;;;;;;;;;;;;;-144.99;78.57;52407.31;5074192;28;19947;-82
2022/10/03 12:28:21;;;;;;;;;;;;;;;-144.99;77.78;52439.94;5072536;28;20339;-81
2022/10/03 12:30:49;;;;;;;;;;;;;;;-144.99;78.81;52435.88;5071451;28;19928;-80
2022/10/03 12:33:28;;;;;;;;;;;;;;;-144.99;79.48;52399.19;5070883;28;19932;-78
2022/10/03 12:36:01;;;;;;;;;;;;;;;-144.99;81.34;52384.91;5066210;28;19928;-79
2022/10/03 12:38:36;;;;;;;;;;;;;;;-144.99;82.13;52384.91;5067195;28;19925;-80
2022/10/03 12:41:12;;;;;;;;;;;;;;;-144.99;82.69;52370.63;5067961;28;19988;-79
2022/10/03 12:43:49;;;;;;;;;;;;;;;-144.99;83.19;52427.72;5072184;28;20051;-80
2022/10/03 12:46:18;;;;;;;;;;;;;;;-144.99;83.34;52415.47;5071283;28;20019;-81
2022/10/03 12:48:47;;;;;;;;;;;;;;;-144.99;83.43;52295.22;5073592;28;20348;-80
2022/10/03 12:51:25;;;;;;;;;;;;;;;-144.99;76.84;52321.72;5078427;28;19928;-82
2022/10/03 12:53:57;;;;;;;;;;;;;;;-144.99;72.83;52325.81;5091759;28;19955;-79
2022/10/03 12:56:30;;;;;;;;;;;;;;;-144.99;67.88;52342.09;5071890;28;19997;-82
2022/10/03 12:59:07;;;;;;;;;;;;;;;-144.99;67.59;52391.03;5074254;28;19985;-81
2022/10/03 13:01:42;;;;;;;;;;;;;;;-144.99;70.06;52362.50;5071136;28;19924;-81
2022/10/03 13:04:16;;;;;;;;;;;;;;;-144.99;72.38;52378.78;5079815;28;19928;-79
2022/10/03 13:06:48;;;;;;;;;;;;;;;-144.99;74.85;52407.31;5076112;28;19925;-80
2022/10/03 13:09:23;;;;;;;;;;;;;;;-144.99;75.81;52395.09;5074528;28;19924;-80
2022/10/03 13:11:55;;;;;;;;;;;;;;;-144.99;76.86;52431.78;5061499;28;19954;-81
2022/10/03 13:14:27;;;;;;;;;;;;;;;-144.99;77.33;52354.34;5072928;28;19931;-80
2022/10/03 13:16:58;;;;;;;;;;;;;;;-144.99;77.63;52374.72;5060955;28;20388;-81
2022/10/03 13:19:27;;;;;;;;;;;;;;;-144.99;78.10;52386.94;5076387;28;19935;-80
2022/10/03 13:22:07;;;;;;;;;;;;;;;-144.99;78.96;52366.56;5074118;28;19924;-81
2022/10/03 13:24:36;;;;;;;;;;;;;;;-144.99;77.37;52427.72;5074247;28;19929;-81
2022/10/03 13:27:18;;;;;;;;;;;;;;;-144.99;76.68;52374.72;5069811;28;20027;-79